Time;durP1;ratioP1;P1;durP2;ratioP2;P2;SDS_P1;SDS_P2;PMS_P1;PMS_P2;Temp;Humidity;BMP_temperature;BMP_pressure;BME280_temperature;BME280_humidity;BME280_pressure;Samples;Min_cycle;Max_cycle;Signal;HPM_P1;HPM_P2
2022/01/16 00:04:24;;;;;;;29.77;13.55;;;;;;;8.59;80.22;101941.09;7386988;19;20811;-66
2022/01/16 00:06:54;;;;;;;25.60;12.30;;;;;;;8.57;78.92;101945.63;7389654;19;20007;-66
2022/01/16 00:09:21;;;;;;;23.90;11.57;;;;;;;8.54;78.76;101955.47;7391466;19;20021;-68
2022/01/16 00:11:50;;;;;;;26.90;11.77;;;;;;;8.49;78.31;101954.97;7386916;19;20006;-66
2022/01/16 00:14:17;;;;;;;22.60;10.90;;;;;;;8.44;78.27;101965.81;7394653;19;20025;-68
2022/01/16 00:16:44;;;;;;;23.15;11.23;;;;;;;8.44;78.77;101963.19;7395420;19;20006;-67
2022/01/16 00:19:11;;;;;;;25.55;11.77;;;;;;;8.48;79.05;101942.84;7394577;19;20364;-67
2022/01/16 00:21:41;;;;;;;28.13;13.13;;;;;;;8.48;78.39;101938.41;7399639;19;20015;-67
2022/01/16 00:24:10;;;;;;;24.88;11.45;;;;;;;8.55;79.13;101955.38;7395275;19;20028;-67
2022/01/16 00:26:39;;;;;;;23.33;11.63;;;;;;;8.53;78.95;101949.38;7394563;19;20086;-67
2022/01/16 00:29:07;;;;;;;25.23;11.70;;;;;;;8.53;78.66;101953.81;7398565;19;20383;-67
2022/01/16 00:31:39;;;;;;;24.58;11.20;;;;;;;8.54;78.89;101956.31;7396092;19;20356;-66
2022/01/16 00:34:08;;;;;;;30.27;13.50;;;;;;;8.59;79.49;101948.09;7394218;19;20009;-69
2022/01/16 00:36:35;;;;;;;28.50;12.93;;;;;;;8.63;80.69;101941.72;7393014;19;20098;-67
2022/01/16 00:39:03;;;;;;;30.45;16.58;;;;;;;8.71;80.50;101957.72;7397254;19;20318;-66
2022/01/16 00:41:32;;;;;;;31.95;15.25;;;;;;;8.76;81.61;101966.09;7394502;19;20010;-67
2022/01/16 00:44:02;;;;;;;26.17;11.93;;;;;;;8.76;80.80;101968.72;7392097;19;20019;-66
2022/01/16 00:46:29;;;;;;;25.45;11.10;;;;;;;8.73;79.86;101974.19;7394540;19;20015;-69
2022/01/16 00:48:56;;;;;;;23.35;10.48;;;;;;;8.73;79.57;101968.94;7394780;19;20010;-68
2022/01/16 00:51:24;;;;;;;28.60;12.05;;;;;;;8.73;79.37;101976.81;7392453;19;20575;-66
2022/01/16 00:53:52;;;;;;;28.42;11.57;;;;;;;8.74;79.43;101977.63;7394223;19;20010;-69
2022/01/16 00:56:19;;;;;;;24.92;12.52;;;;;;;8.74;79.13;101967.97;7396355;19;20444;-68
2022/01/16 00:58:45;;;;;;;24.33;11.10;;;;;;;8.72;78.89;101951.53;7392677;19;20321;-68
2022/01/16 01:01:15;;;;;;;28.33;12.60;;;;;;;8.71;79.15;101938.50;7393906;19;20027;-68
2022/01/16 01:03:42;;;;;;;24.67;11.93;;;;;;;8.70;78.90;101966.53;7393430;19;20621;-69
2022/01/16 01:06:09;;;;;;;25.35;11.70;;;;;;;8.70;79.32;101971.78;7393452;19;20310;-67
2022/01/16 01:08:36;;;;;;;29.45;11.95;;;;;;;8.70;79.16;101947.31;7394736;19;20461;-66
2022/01/16 01:11:08;;;;;;;27.10;12.27;;;;;;;8.69;78.98;101958.75;7395356;19;20074;-67
2022/01/16 01:13:55;;;;;;;25.90;12.13;;;;;;;8.69;79.33;101945.66;7392029;19;20036;-67
2022/01/16 01:16:23;;;;;;;28.42;13.60;;;;;;;8.74;80.15;101954.00;7395369;19;20015;-67
2022/01/16 01:18:50;;;;;;;41.33;19.13;;;;;;;8.77;81.50;101930.19;7390435;19;20369;-67
2022/01/16 01:21:28;;;;;;;31.70;14.88;;;;;;;8.80;82.85;101950.94;7395985;19;20490;-68
2022/01/16 01:23:59;;;;;;;36.78;15.85;;;;;;;8.78;82.08;101940.59;7391139;19;20245;-67
2022/01/16 01:26:35;;;;;;;39.03;17.17;;;;;;;8.76;82.30;101962.63;7396360;19;20368;-68
2022/01/16 01:29:03;;;;;;;28.23;13.38;;;;;;;8.79;82.68;101947.47;7393750;19;20558;-68
2022/01/16 01:31:30;;;;;;;34.65;16.40;;;;;;;8.81;81.69;101961.34;7393163;19;20464;-68
2022/01/16 01:33:58;;;;;;;26.60;11.48;;;;;;;8.81;80.46;101968.38;7393620;19;20029;-67
2022/01/16 01:36:25;;;;;;;29.60;13.77;;;;;;;8.74;80.18;101944.34;7391903;19;20019;-67
2022/01/16 01:38:52;;;;;;;24.90;11.75;;;;;;;8.74;79.70;101946.16;7396047;19;20090;-67
2022/01/16 01:41:20;;;;;;;26.88;12.07;;;;;;;8.71;79.75;101879.00;7392856;19;20038;-66
2022/01/16 01:52:03;;;;;;;27.20;11.70;;;;;;;8.65;80.77;101855.84;7392492;19;20013;-67
2022/01/16 01:54:30;;;;;;;23.85;11.43;;;;;;;8.69;81.68;101888.78;7395626;19;20527;-66
2022/01/16 01:56:58;;;;;;;38.90;16.52;;;;;;;8.71;82.63;101910.50;7391840;19;20021;-67
2022/01/16 01:59:26;;;;;;;24.20;12.57;;;;;;;8.72;82.57;101913.97;7389951;19;20102;-67
2022/01/16 02:01:53;;;;;;;24.15;11.55;;;;;;;8.67;81.74;101937.06;7392378;19;20011;-67
2022/01/16 02:04:20;;;;;;;37.17;16.60;;;;;;;8.63;81.94;101933.84;7394034;19;20523;-67
2022/01/16 02:06:47;;;;;;;32.00;13.32;;;;;;;8.63;82.48;101923.34;7391478;19;20006;-66
2022/01/16 02:09:14;;;;;;;36.20;16.77;;;;;;;8.63;83.46;101938.25;7392798;19;20003;-67
2022/01/16 02:11:43;;;;;;;28.55;13.38;;;;;;;8.62;83.86;101931.31;7393462;19;20040;-66
2022/01/16 02:14:25;;;;;;;23.58;11.30;;;;;;;8.55;82.57;101944.88;7391212;19;20016;-69
2022/01/16 02:28:23;;;;;;;21.73;10.77;;;;;;;8.59;84.25;101946.31;7392613;19;20019;-67
2022/01/16 02:38:57;;;;;;;36.80;16.83;;;;;;;8.72;86.02;101966.44;7394044;19;20383;-66
2022/01/16 02:41:24;;;;;;;34.30;17.05;;;;;;;8.73;86.11;101963.69;7390670;19;20006;-67
2022/01/16 02:43:53;;;;;;;23.13;11.40;;;;;;;8.75;86.40;101964.41;7392565;19;20078;-67
2022/01/16 02:48:49;;;;;;;24.65;11.65;;;;;;;8.77;85.94;101952.03;7390566;19;20078;-67
2022/01/16 02:51:24;;;;;;;23.00;11.50;;;;;;;8.78;85.56;101932.72;7390680;19;20028;-68
2022/01/16 02:53:51;;;;;;;24.38;10.77;;;;;;;8.75;84.53;101929.47;7390888;19;20014;-67
2022/01/16 02:56:35;;;;;;;25.85;11.10;;;;;;;8.73;84.23;101926.13;7392771;19;20014;-67
2022/01/16 02:59:33;;;;;;;25.58;10.63;;;;;;;8.70;84.31;101935.06;7388923;19;20034;-67
2022/01/16 03:02:22;;;;;;;24.38;11.57;;;;;;;8.70;84.53;101907.97;7390010;19;20025;-66
2022/01/16 03:10:29;;;;;;;26.48;10.95;;;;;;;8.73;86.66;101905.97;7393782;19;20431;-67
2022/01/16 03:12:56;;;;;;;26.65;12.00;;;;;;;8.68;86.82;101900.25;7393174;19;20078;-67
2022/01/16 03:15:24;;;;;;;27.17;12.45;;;;;;;8.63;87.07;101891.88;7392543;19;20027;-67
2022/01/16 03:23:23;;;;;;;27.92;10.85;;;;;;;8.62;88.00;101903.31;7392720;19;20031;-67
2022/01/16 03:25:51;;;;;;;30.95;13.95;;;;;;;8.63;88.59;101898.91;7389689;19;20528;-67
2022/01/16 03:28:18;;;;;;;24.13;10.82;;;;;;;8.65;88.72;101889.94;7388433;19;20003;-68
2022/01/16 03:30:46;;;;;;;33.67;14.90;;;;;;;8.65;88.74;101881.25;7392951;19;20011;-67
2022/01/16 03:33:13;;;;;;;23.48;10.93;;;;;;;8.67;89.03;101869.69;7389497;19;20062;-68
2022/01/16 03:35:41;;;;;;;26.67;11.10;;;;;;;8.65;88.94;101857.63;7388855;19;20473;-67
2022/01/16 03:38:11;;;;;;;40.15;15.38;;;;;;;8.67;89.71;101866.25;7388430;19;20027;-67
2022/01/16 03:40:37;;;;;;;31.40;13.15;;;;;;;8.67;90.29;101869.69;7389189;19;20706;-66
2022/01/16 03:43:12;;;;;;;27.85;12.85;;;;;;;8.71;90.24;101865.06;7387837;19;20015;-67
2022/01/16 03:45:45;;;;;;;27.48;11.52;;;;;;;8.67;89.82;101885.44;7391528;19;20015;-66
2022/01/16 03:48:15;;;;;;;28.63;11.80;;;;;;;8.67;89.98;101887.22;7393579;19;20070;-67
2022/01/16 03:50:42;;;;;;;25.10;11.82;;;;;;;8.63;89.39;101876.13;7396390;19;20081;-67
2022/01/16 03:53:08;;;;;;;23.48;11.40;;;;;;;8.59;89.27;101878.13;7399242;19;20032;-67
2022/01/16 03:55:35;;;;;;;27.17;11.93;;;;;;;8.62;89.34;101884.09;7395978;19;20029;-67
2022/01/16 03:58:03;;;;;;;25.95;12.07;;;;;;;8.61;89.34;101885.91;7398961;19;20041;-66
2022/01/16 04:00:30;;;;;;;23.92;11.38;;;;;;;8.59;89.05;101886.00;7397011;19;20003;-68
2022/01/16 04:02:59;;;;;;;27.77;12.32;;;;;;;8.58;89.62;101880.88;7395434;19;20085;-68
2022/01/16 04:05:26;;;;;;;27.20;11.43;;;;;;;8.57;89.32;101884.44;7398141;19;20571;-67
2022/01/16 04:07:53;;;;;;;27.70;11.85;;;;;;;8.56;89.76;101886.22;7398283;19;20013;-66
2022/01/16 04:10:22;;;;;;;26.05;12.35;;;;;;;8.55;89.96;101896.84;7396519;19;20086;-67
2022/01/16 04:12:50;;;;;;;24.48;11.18;;;;;;;8.51;89.70;101892.75;7393717;19;20007;-66
2022/01/16 04:17:45;;;;;;;30.75;11.65;;;;;;;8.46;90.09;101889.66;7396642;19;20014;-66
2022/01/16 04:20:16;;;;;;;29.13;12.15;;;;;;;8.43;90.07;101885.44;7393515;19;20102;-66
2022/01/16 04:22:43;;;;;;;27.40;11.25;;;;;;;8.41;90.32;101891.78;7393340;19;20011;-67
2022/01/16 04:25:10;;;;;;;27.98;12.13;;;;;;;8.39;90.43;101893.66;7397687;19;20086;-67
2022/01/16 04:27:37;;;;;;;30.50;12.38;;;;;;;8.34;90.11;101888.75;7397952;19;20663;-67
2022/01/16 04:30:05;;;;;;;27.88;12.70;;;;;;;8.30;90.46;101883.84;7397835;19;20007;-66
2022/01/16 04:32:32;;;;;;;30.48;12.05;;;;;;;8.30;90.76;101889.09;7399562;19;20013;-66
2022/01/16 04:34:59;;;;;;;27.95;11.85;;;;;;;8.26;90.67;101877.13;7392682;19;20536;-72
2022/01/16 04:37:26;;;;;;;26.90;12.27;;;;;;;8.23;90.71;101883.41;7391044;19;20342;-68
2022/01/16 04:40:00;;;;;;;31.33;13.55;;;;;;;8.22;91.04;101879.16;7393459;19;20018;-66
2022/01/16 04:45:17;;;;;;;26.13;11.95;;;;;;;8.16;91.18;101890.06;7396672;19;20009;-66
2022/01/16 04:47:44;;;;;;;27.10;12.35;;;;;;;8.14;91.39;101879.69;7396354;19;20410;-67
2022/01/16 04:50:13;;;;;;;26.88;10.88;;;;;;;8.14;91.49;101873.59;7395665;19;20028;-66
2022/01/16 04:52:42;;;;;;;29.42;12.35;;;;;;;8.11;91.55;101881.69;7397005;19;20015;-68
2022/01/16 04:55:11;;;;;;;28.20;12.93;;;;;;;8.11;91.41;101881.69;7394441;19;20017;-67
2022/01/16 04:57:38;;;;;;;30.88;13.32;;;;;;;8.10;91.68;101888.72;7392651;19;20011;-66
2022/01/16 05:00:09;;;;;;;31.55;12.68;;;;;;;8.10;91.64;101875.63;7393778;19;20019;-67
2022/01/16 05:02:36;;;;;;;35.53;14.23;;;;;;;8.11;91.84;101879.09;7395102;19;20052;-68
2022/01/16 05:05:03;;;;;;;29.77;13.75;;;;;;;8.10;91.65;101873.00;7395610;19;20298;-66
2022/01/16 05:07:30;;;;;;;31.90;12.80;;;;;;;8.08;91.62;101864.41;7397911;19;20119;-67
2022/01/16 05:09:57;;;;;;;36.40;14.68;;;;;;;8.11;91.74;101876.47;7393474;19;20016;-66
2022/01/16 05:12:33;;;;;;;30.83;13.43;;;;;;;8.10;92.03;101873.00;7393733;19;20154;-65
2022/01/16 05:17:46;;;;;;;29.38;13.82;;;;;;;8.13;92.46;101887.66;7393315;19;20817;-67
2022/01/16 05:20:13;;;;;;;35.38;15.68;;;;;;;8.16;92.12;101885.66;7391838;19;20360;-67
2022/01/16 05:22:41;;;;;;;35.83;14.10;;;;;;;8.15;92.48;101886.59;7393466;19;20010;-67
2022/01/16 05:25:11;;;;;;;31.65;14.20;;;;;;;8.15;92.43;101880.53;7393261;19;20007;-68
2022/01/16 05:27:38;;;;;;;38.40;13.95;;;;;;;8.16;92.41;101885.66;7393622;19;20038;-67
2022/01/16 05:30:06;;;;;;;33.10;12.85;;;;;;;8.18;92.56;101896.00;7393145;19;20106;-66
2022/01/16 05:32:33;;;;;;;34.15;13.82;;;;;;;8.22;92.64;101889.63;7393381;19;20082;-66
2022/01/16 05:35:06;;;;;;;59.97;18.95;;;;;;;8.27;92.95;101892.75;7392874;19;20341;-68
2022/01/16 05:37:33;;;;;;;34.17;13.15;;;;;;;8.30;93.06;101889.94;7391891;19;20090;-67
2022/01/16 05:40:00;;;;;;;32.35;14.00;;;;;;;8.31;92.87;101898.63;7391141;19;20086;-67
2022/01/16 05:42:27;;;;;;;35.60;14.32;;;;;;;8.31;92.74;101891.59;7392872;19;20014;-67
2022/01/16 05:44:54;;;;;;;30.02;13.70;;;;;;;8.33;92.59;101902.81;7392405;19;20010;-67
2022/01/16 05:47:21;;;;;;;34.13;13.55;;;;;;;8.35;92.55;101893.06;7392635;19;20019;-66
2022/01/16 05:49:48;;;;;;;33.10;14.15;;;;;;;8.39;92.97;101876.13;7392615;19;20006;-67
2022/01/16 05:52:35;;;;;;;35.40;14.90;;;;;;;8.41;92.89;101886.53;7394599;19;20010;-68
2022/01/16 05:55:02;;;;;;;37.05;14.43;;;;;;;8.41;92.54;101897.84;7390397;19;20222;-67
2022/01/16 05:57:29;;;;;;;35.13;14.77;;;;;;;8.41;92.61;101876.03;7391990;19;20014;-66
2022/01/16 05:59:56;;;;;;;32.08;14.63;;;;;;;8.44;92.83;101874.00;7393741;19;20019;-69
2022/01/16 06:02:23;;;;;;;36.88;15.07;;;;;;;8.48;92.68;101885.94;7392629;19;20017;-66
2022/01/16 06:04:50;;;;;;;38.20;16.38;;;;;;;8.53;92.89;101877.75;7396004;19;20020;-68
2022/01/16 06:07:18;;;;;;;33.35;13.48;;;;;;;8.54;92.67;101888.13;7391979;19;20660;-65
2022/01/16 06:09:45;;;;;;;34.88;13.80;;;;;;;8.55;92.16;101886.34;7393828;19;20102;-68
2022/01/16 06:12:12;;;;;;;37.33;15.15;;;;;;;8.57;92.09;101887.06;7389480;19;20025;-66
2022/01/16 06:14:39;;;;;;;36.25;13.85;;;;;;;8.55;91.99;101894.22;7392228;19;20011;-67
2022/01/16 06:17:06;;;;;;;33.08;13.50;;;;;;;8.56;92.20;101914.25;7391955;19;20603;-66
2022/01/16 06:19:33;;;;;;;35.30;14.15;;;;;;;8.56;92.23;101919.50;7389416;19;20011;-68
2022/01/16 06:22:00;;;;;;;37.03;14.75;;;;;;;8.54;92.17;101919.59;7389719;19;20014;-67
2022/01/16 06:24:27;;;;;;;33.17;13.27;;;;;;;8.56;92.48;101916.88;7395725;19;20021;-66
2022/01/16 06:26:54;;;;;;;33.35;14.05;;;;;;;8.57;92.44;101934.28;7394268;19;20014;-68
2022/01/16 06:29:21;;;;;;;33.60;14.05;;;;;;;8.62;92.46;101926.06;7391080;19;20018;-67
2022/01/16 06:31:48;;;;;;;36.67;13.98;;;;;;;8.62;92.80;101926.91;7391030;19;20011;-67
2022/01/16 06:34:15;;;;;;;31.88;13.00;;;;;;;8.63;92.88;101931.22;7390649;19;20010;-67
2022/01/16 06:36:42;;;;;;;33.75;13.38;;;;;;;8.64;92.67;101932.03;7390142;19;20025;-68
2022/01/16 06:39:12;;;;;;;31.75;12.23;;;;;;;8.63;92.88;101946.13;7390229;19;20474;-70
2022/01/16 06:41:39;;;;;;;33.25;11.43;;;;;;;8.62;92.93;101947.91;7391025;19;20017;-67
2022/01/16 06:44:07;;;;;;;27.67;10.25;;;;;;;8.62;93.05;101942.66;7391001;19;20024;-67
2022/01/16 06:46:34;;;;;;;24.50;11.07;;;;;;;8.64;93.19;101945.16;7389282;19;20043;-67
2022/01/16 06:49:01;;;;;;;32.33;10.35;;;;;;;8.64;93.25;101939.91;7388797;19;20088;-67
2022/01/16 06:51:28;;;;;;;29.08;9.75;;;;;;;8.65;93.23;101939.78;7390425;19;20046;-66
2022/01/16 06:54:08;;;;;;;27.48;9.43;;;;;;;8.68;94.09;101941.38;7393266;19;20018;-66
2022/01/16 06:56:48;;;;;;;26.95;9.32;;;;;;;8.72;94.24;101943.66;7390549;19;20010;-68
2022/01/16 06:59:38;;;;;;;28.50;8.07;;;;;;;8.71;93.99;101941.97;7389609;19;20007;-68
2022/01/16 07:02:18;;;;;;;29.40;9.27;;;;;;;8.67;94.14;101943.16;7390045;19;20025;-66
2022/01/16 07:05:05;;;;;;;30.13;9.35;;;;;;;8.66;94.05;101954.59;7390788;19;20002;-67
2022/01/16 07:07:36;;;;;;;31.80;9.38;;;;;;;8.66;94.56;101949.34;7388094;19;20010;-68
2022/01/16 07:10:04;;;;;;;30.45;9.50;;;;;;;8.66;94.11;101956.38;7389701;19;20002;-67
2022/01/16 07:12:31;;;;;;;31.35;9.50;;;;;;;8.66;94.27;101956.38;7389593;19;20014;-65
2022/01/16 07:14:58;;;;;;;46.30;10.98;;;;;;;8.64;94.00;101964.34;7392010;19;20006;-68
2022/01/16 07:17:35;;;;;;;37.45;10.27;;;;;;;8.64;94.52;101969.59;7389845;19;20014;-66
2022/01/16 07:20:15;;;;;;;31.73;9.70;;;;;;;8.65;94.30;101981.78;7390626;19;20033;-68
2022/01/16 07:22:48;;;;;;;34.80;11.32;;;;;;;8.65;94.29;101981.78;7388728;19;20377;-67
2022/01/16 07:25:18;;;;;;;;;;;;;;;8.64;94.53;101980.09;7392033;19;20062;-66
2022/01/16 07:27:45;;;;;;;35.95;10.55;;;;;;;8.62;94.62;101984.63;7389739;19;19915;-66
2022/01/16 07:30:12;;;;;;;40.50;13.40;;;;;;;8.65;95.30;101987.00;7392543;19;20387;-67
2022/01/16 07:33:04;;;;;;;448.75;31.23;;;;;;;8.70;96.00;101992.75;7389362;19;20325;-66
2022/01/16 07:35:58;;;;;;;40.60;12.35;;;;;;;8.74;96.30;101983.72;7385337;19;20041;-67
2022/01/16 07:38:51;;;;;;;36.80;12.48;;;;;;;8.74;96.20;101985.50;7388681;19;20014;-68
2022/01/16 07:41:33;;;;;;;36.90;11.55;;;;;;;8.70;95.42;101982.28;7388008;19;20517;-68
2022/01/16 07:44:05;;;;;;;35.83;13.35;;;;;;;8.72;95.65;101983.00;7388202;19;20066;-66
2022/01/16 07:46:36;;;;;;;50.72;12.25;;;;;;;8.73;96.13;102008.31;7389124;19;20037;-68
2022/01/16 07:49:03;;;;;;;35.55;12.55;;;;;;;8.76;96.57;102007.22;7388928;19;20023;-67
2022/01/16 07:51:31;;;;;;;36.03;11.32;;;;;;;8.78;96.39;102000.09;7388687;19;20021;-66
2022/01/16 07:53:59;;;;;;;53.50;16.25;;;;;;;8.81;96.73;101997.22;7387063;19;20059;-66
2022/01/16 07:56:26;;;;;;;35.65;11.93;;;;;;;8.80;96.47;102008.66;7388536;19;20017;-67
2022/01/16 07:58:53;;;;;;;36.42;11.95;;;;;;;8.77;95.68;102001.03;7389789;19;20019;-66
2022/01/16 08:01:20;;;;;;;32.20;10.95;;;;;;;8.74;95.68;102009.94;7387347;19;20336;-66
2022/01/16 08:03:49;;;;;;;34.67;11.15;;;;;;;8.76;95.15;102001.97;7388576;19;20030;-67
2022/01/16 08:06:27;;;;;;;35.00;10.48;;;;;;;8.69;94.80;102009.44;7392673;19;20011;-66
2022/01/16 08:09:05;;;;;;;36.80;10.90;;;;;;;8.68;94.87;102017.44;7389533;19;20019;-67
2022/01/16 08:11:46;;;;;;;35.03;11.70;;;;;;;8.65;94.67;102013.25;7388445;19;20214;-67
2022/01/16 08:14:45;;;;;;;39.83;11.18;;;;;;;8.63;94.52;102025.66;7388570;19;20019;-66
2022/01/16 08:17:17;;;;;;;32.47;9.90;;;;;;;8.57;94.65;102013.81;7388291;19;20055;-69
2022/01/16 08:19:44;;;;;;;49.97;16.25;;;;;;;8.60;95.45;102020.63;7390704;19;20007;-66
2022/01/16 08:22:11;;;;;;;36.55;12.10;;;;;;;8.64;95.77;102035.19;7392384;19;20435;-67
2022/01/16 08:24:38;;;;;;;43.85;13.45;;;;;;;8.65;95.67;102022.91;7387520;19;20021;-67
2022/01/16 08:27:05;;;;;;;770.53;43.88;;;;;;;8.74;96.94;102025.69;7388158;19;20070;-66
2022/01/16 08:29:32;;;;;;;545.30;33.03;;;;;;;8.87;98.97;102025.66;7387377;19;20018;-67
2022/01/16 08:31:58;;;;;;;466.15;29.30;;;;;;;8.91;99.25;102027.09;7387806;19;20006;-67
2022/01/16 08:34:25;;;;;;;47.65;14.20;;;;;;;8.92;99.27;102021.75;7389789;19;20015;-67
2022/01/16 08:36:52;;;;;;;73.45;15.05;;;;;;;8.88;98.48;102033.44;7393633;19;20029;-67
2022/01/16 08:39:19;;;;;;;51.97;13.13;;;;;;;8.87;98.13;102030.91;7396984;19;20015;-68
2022/01/16 08:41:46;;;;;;;34.42;11.82;;;;;;;8.85;98.08;102028.38;7394236;19;20034;-67
2022/01/16 08:44:13;;;;;;;36.72;11.65;;;;;;;8.76;97.11;102036.94;7394305;19;20021;-66
2022/01/16 08:46:40;;;;;;;39.55;12.60;;;;;;;8.75;96.70;102031.78;7392639;19;20498;-66
2022/01/16 08:49:07;;;;;;;37.85;11.65;;;;;;;8.73;96.78;102034.53;7394541;19;20007;-68
2022/01/16 08:51:55;;;;;;;32.03;9.90;;;;;;;8.71;96.55;102030.34;7394950;19;20014;-68
2022/01/16 08:54:30;;;;;;;31.60;9.30;;;;;;;8.69;95.98;102029.59;7394268;19;20054;-67
2022/01/16 08:57:16;;;;;;;31.38;10.27;;;;;;;8.67;95.68;102036.75;7394897;19;20010;-67
2022/01/16 08:59:54;;;;;;;37.85;11.40;;;;;;;8.62;95.39;102041.50;7395569;19;20085;-68
2022/01/16 09:02:23;;;;;;;39.53;12.18;;;;;;;8.60;95.88;102036.34;7393546;19;20024;-68
2022/01/16 09:04:50;;;;;;;45.10;13.02;;;;;;;8.64;96.08;102050.06;7395862;19;20018;-66
2022/01/16 09:07:17;;;;;;;49.58;15.00;;;;;;;8.69;96.20;102056.69;7395245;19;20431;-67
2022/01/16 09:09:44;;;;;;;45.08;13.38;;;;;;;8.71;96.29;102070.53;7397252;19;20717;-68
2022/01/16 09:12:12;;;;;;;40.42;13.60;;;;;;;8.72;95.89;102080.09;7397363;19;20500;-68
2022/01/16 09:14:39;;;;;;;42.97;12.80;;;;;;;8.75;95.75;102079.84;7394661;19;20021;-66
2022/01/16 09:17:06;;;;;;;42.00;12.70;;;;;;;8.78;96.10;102094.56;7393983;19;20031;-69
2022/01/16 09:19:32;;;;;;;52.75;13.10;;;;;;;8.78;96.12;102095.41;7394102;19;20107;-67
2022/01/16 09:21:59;;;;;;;47.03;12.90;;;;;;;8.77;95.90;102096.34;7392010;19;20014;-68
2022/01/16 09:24:26;;;;;;;54.67;16.38;;;;;;;8.79;96.04;102098.81;7393563;19;20007;-67
2022/01/16 09:26:54;;;;;;;61.55;19.50;;;;;;;8.82;96.34;102096.00;7394703;19;20114;-68
2022/01/16 09:29:21;;;;;;;82.90;20.65;;;;;;;8.86;96.36;102102.69;7391343;19;20496;-69
2022/01/16 09:31:48;;;;;;;47.72;15.25;;;;;;;8.91;96.31;102108.47;7390805;19;20383;-69
2022/01/16 09:34:15;;;;;;;45.67;15.40;;;;;;;8.87;95.81;102120.97;7389107;19;20015;-66
2022/01/16 09:36:42;;;;;;;106.32;17.05;;;;;;;8.91;96.00;102121.59;7393761;19;20233;-67
2022/01/16 09:39:10;;;;;;;48.83;13.70;;;;;;;8.93;95.46;102125.78;7391970;19;20014;-67
2022/01/16 09:41:40;;;;;;;45.17;13.55;;;;;;;8.90;95.39;102148.78;7392652;19;20014;-67
2022/01/16 09:44:07;;;;;;;50.75;13.20;;;;;;;8.89;95.75;102141.84;7389265;19;20015;-68
2022/01/16 09:46:35;;;;;;;42.50;11.75;;;;;;;8.88;95.78;102154.16;7389967;19;20011;-68
2022/01/16 09:49:04;;;;;;;40.08;10.68;;;;;;;8.92;96.27;102150.34;7393918;19;20019;-67
2022/01/16 09:51:33;;;;;;;33.53;9.15;;;;;;;8.94;96.00;102143.19;7392476;19;20270;-68
2022/01/16 09:54:01;;;;;;;29.17;9.32;;;;;;;8.95;95.51;102138.78;7388351;19;20013;-67
2022/01/16 09:56:28;;;;;;;32.22;9.68;;;;;;;8.97;95.43;102129.03;7391927;19;20085;-69
2022/01/16 09:58:55;;;;;;;37.10;9.18;;;;;;;8.98;94.88;102128.91;7389496;19;20066;-68
2022/01/16 10:01:24;;;;;;;33.08;8.88;;;;;;;8.99;94.44;102124.47;7391133;19;20448;-68
2022/01/16 10:03:52;;;;;;;35.08;9.00;;;;;;;8.99;94.20;102138.44;7393393;19;20027;-67
2022/01/16 10:06:24;;;;;;;35.50;9.07;;;;;;;9.00;94.25;102139.28;7393444;19;20337;-68
2022/01/16 10:08:59;;;;;;;38.35;9.25;;;;;;;9.01;94.00;102146.22;7393039;19;20026;-69
2022/01/16 10:11:38;;;;;;;44.30;11.90;;;;;;;9.04;94.37;102158.31;7388540;19;20129;-66
2022/01/16 10:14:45;;;;;;;38.53;11.48;;;;;;;9.05;94.43;102171.31;7393279;19;20055;-66
2022/01/16 10:17:46;;;;;;;40.10;11.45;;;;;;;9.06;94.27;102178.25;7390369;19;20082;-67
2022/01/16 10:20:18;;;;;;;29.45;9.70;;;;;;;9.09;94.28;102179.81;7391241;19;20007;-67
2022/01/16 10:23:00;;;;;;;33.95;9.82;;;;;;;9.11;94.04;102180.53;7392635;19;20010;-67
2022/01/16 10:25:45;;;;;;;27.80;9.02;;;;;;;9.15;94.01;102193.31;7391404;19;20014;-67
2022/01/16 10:28:18;;;;;;;36.08;10.25;;;;;;;9.17;94.33;102196.69;7390747;19;20090;-68
2022/01/16 10:30:49;;;;;;;;;;;;;;;9.21;93.69;102194.69;7392883;19;20018;-68
2022/01/16 10:33:29;;;;;;;25.65;6.85;;;;;;;9.20;93.65;102199.09;7389141;19;19918;-71
2022/01/16 10:36:00;;;;;;;29.13;8.07;;;;;;;9.22;93.24;102212.97;7392333;19;20713;-68
2022/01/16 10:38:31;;;;;;;24.08;7.90;;;;;;;9.25;93.19;102204.84;7388555;19;20006;-68
2022/01/16 10:40:59;;;;;;;41.13;9.30;;;;;;;9.30;93.19;102212.38;7390013;19;20642;-70
2022/01/16 10:43:46;;;;;;;27.58;8.70;;;;;;;9.31;93.44;102217.53;7388501;19;20669;-67
2022/01/16 10:46:15;;;;;;;26.80;9.02;;;;;;;9.36;93.44;102215.41;7389311;19;20010;-70
2022/01/16 10:49:18;;;;;;;25.63;7.82;;;;;;;9.38;92.90;102221.41;7389946;19;20499;-67
2022/01/16 10:52:02;;;;;;;20.95;7.40;;;;;;;9.40;92.50;102219.50;7387760;19;20015;-68
2022/01/16 10:54:33;;;;;;;22.48;8.20;;;;;;;9.42;91.95;102227.28;7385007;19;20017;-67
2022/01/16 10:57:27;;;;;;;25.20;8.32;;;;;;;9.43;91.84;102226.34;7390021;19;20025;-68
2022/01/16 11:00:06;;;;;;;;;;;;;;;9.46;91.80;102233.97;7386937;19;20010;-68
2022/01/16 11:02:33;;;;;;;25.20;8.23;;;;;;;9.44;91.82;102214.88;7384805;19;19918;-67
2022/01/16 11:05:09;;;;;;;38.78;10.65;;;;;;;9.48;91.54;102223.38;7388704;19;20373;-68
2022/01/16 11:07:37;;;;;;;19.27;7.45;;;;;;;9.51;91.60;102217.88;7384622;19;20520;-68
2022/01/16 11:10:24;;;;;;;27.67;8.13;;;;;;;9.56;91.49;102213.13;7386260;19;20054;-67
2022/01/16 11:12:52;;;;;;;21.63;7.85;;;;;;;9.56;91.36;102208.72;7384508;19;20042;-67
2022/01/16 11:15:24;;;;;;;23.52;8.13;;;;;;;9.63;91.47;102209.13;7384694;19;20015;-68
2022/01/16 11:17:53;;;;;;;24.25;8.98;;;;;;;9.70;92.09;102213.00;7386110;19;20388;-68
2022/01/16 11:20:28;;;;;;;21.98;9.35;;;;;;;9.71;91.88;102210.22;7384395;19;20011;-67
2022/01/16 11:25:33;;;;;;;25.83;11.18;;;;;;;9.82;92.16;102214.69;7388276;19;20019;-68
2022/01/16 11:28:09;;;;;;;25.00;9.88;;;;;;;9.86;91.44;102216.97;7384982;19;20084;-67
2022/01/16 11:30:42;;;;;;;27.95;11.90;;;;;;;9.83;90.32;102209.34;7390366;19;20448;-68
2022/01/16 11:33:10;;;;;;;30.90;11.80;;;;;;;9.83;90.16;102217.22;7387418;19;20054;-67
2022/01/16 11:35:50;;;;;;;24.58;9.85;;;;;;;9.83;90.36;102209.34;7384886;19;20307;-68
2022/01/16 11:38:19;;;;;;;29.42;10.38;;;;;;;9.86;90.23;102211.72;7384598;19;20133;-66
2022/01/16 11:40:48;;;;;;;36.70;14.50;;;;;;;9.91;90.31;102208.75;7386026;19;20014;-68
2022/01/16 11:43:18;;;;;;;23.90;8.80;;;;;;;9.91;89.91;102221.06;7384325;19;20207;-67
2022/01/16 11:45:51;;;;;;;28.45;9.93;;;;;;;9.91;89.55;102231.56;7384456;19;20018;-67
2022/01/16 11:48:37;;;;;;;23.35;8.82;;;;;;;9.90;89.59;102227.28;7386323;19;20170;-68
2022/01/16 11:51:34;;;;;;;23.77;8.57;;;;;;;9.90;89.25;102225.50;7384890;19;20010;-66
2022/01/16 11:54:02;;;;;;;21.50;8.32;;;;;;;9.91;89.23;102223.69;7386227;19;20027;-67
2022/01/16 11:59:26;;;;;;;25.75;9.57;;;;;;;9.95;89.22;102238.28;7388458;19;20019;-67
2022/01/16 12:01:56;;;;;;;39.22;15.05;;;;;;;9.97;89.93;102241.63;7382908;19;20006;-69
2022/01/16 12:04:30;;;;;;;23.42;10.38;;;;;;;10.01;90.09;102246.53;7386875;19;20024;-68
2022/01/16 12:07:00;;;;;;;24.67;9.63;;;;;;;10.02;89.47;102244.75;7388157;19;20014;-67
2022/01/16 12:09:50;;;;;;;26.67;11.40;;;;;;;10.03;89.90;102254.34;7386754;19;20007;-66
2022/01/16 12:12:17;;;;;;;27.80;11.02;;;;;;;10.06;89.49;102251.47;7391824;19;20010;-67
2022/01/16 12:14:57;;;;;;;22.42;10.43;;;;;;;10.07;89.81;102267.13;7391079;19;20014;-67
2022/01/16 12:17:29;;;;;;;24.27;10.18;;;;;;;10.05;89.29;102257.69;7391481;19;20029;-68
2022/01/16 12:19:59;;;;;;;36.92;16.25;;;;;;;10.06;90.21;102261.97;7392364;19;20262;-66
2022/01/16 12:22:50;;;;;;;29.38;12.70;;;;;;;10.08;90.27;102267.97;7388698;19;20040;-68
2022/01/16 12:25:43;;;;;;;23.63;10.02;;;;;;;10.04;89.81;102256.00;7391472;19;20022;-67
2022/01/16 12:28:10;;;;;;;33.05;12.38;;;;;;;10.03;89.72;102255.16;7394993;19;20018;-67
2022/01/16 12:30:41;;;;;;;25.13;10.55;;;;;;;10.02;89.36;102255.28;7396588;19;20010;-66
2022/01/16 12:33:09;;;;;;;29.02;12.18;;;;;;;10.05;90.06;102244.56;7393258;19;20014;-67
2022/01/16 12:35:45;;;;;;;24.73;9.35;;;;;;;10.05;89.77;102252.44;7392282;19;20492;-66